sensor_id;sensor_type;location;lat;lon;timestamp;P1;durP1;ratioP1;P2;durP2;ratioP2
39294;SDS011;52361;52.100;5.248;2022-11-15T00:00:16;21.5;;;10.7;;
39294;SDS011;52361;52.100;5.248;2022-11-15T00:01:52;26.8;;;10.7;;
39294;SDS011;52361;52.100;5.248;2022-11-15T00:03:29;25.3;;;11.3;;
39294;SDS011;52361;52.100;5.248;2022-11-15T00:05:05;26.2;;;10.1;;
39294;SDS011;52361;52.100;5.248;2022-11-15T00:08:18;19.8;;;10.21;;
39294;SDS011;52361;52.100;5.248;2022-11-15T00:09:55;25.0;;;10.6;;
39294;SDS011;52361;52.100;5.248;2022-11-15T00:11:31;20.2;;;8.4;;
39294;SDS011;52361;52.100;5.248;2022-11-15T00:14:46;24.7;;;11.0;;
39294;SDS011;52361;52.100;5.248;2022-11-15T00:16:22;24.5;;;11.0;;
39294;SDS011;52361;52.100;5.248;2022-11-15T00:17:59;24.4;;;10.0;;
39294;SDS011;52361;52.100;5.248;2022-11-15T00:21:12;25.7;;;10.1;;
39294;SDS011;52361;52.100;5.248;2022-11-15T00:22:51;27.9;;;12.3;;
39294;SDS011;52361;52.100;5.248;2022-11-15T00:24:28;27.0;;;11.7;;
39294;SDS011;52361;52.100;5.248;2022-11-15T00:26:04;28.8;;;11.0;;
39294;SDS011;52361;52.100;5.248;2022-11-15T00:29:17;31.2;;;12.6;;
39294;SDS011;52361;52.100;5.248;2022-11-15T00:30:53;27.5;;;12.5;;
39294;SDS011;52361;52.100;5.248;2022-11-15T00:32:34;27.0;;;11.1;;
39294;SDS011;52361;52.100;5.248;2022-11-15T00:35:47;29.1;;;11.3;;
39294;SDS011;52361;52.100;5.248;2022-11-15T00:37:23;34.9;;;11.5;;
39294;SDS011;52361;52.100;5.248;2022-11-15T00:38:59;29.3;;;11.9;;
39294;SDS011;52361;52.100;5.248;2022-11-15T00:42:11;28.0;;;12.1;;
39294;SDS011;52361;52.100;5.248;2022-11-15T00:43:47;34.81;;;12.4;;
39294;SDS011;52361;52.100;5.248;2022-11-15T00:45:24;31.9;;;11.8;;
39294;SDS011;52361;52.100;5.248;2022-11-15T00:47:01;28.3;;;11.7;;
39294;SDS011;52361;52.100;5.248;2022-11-15T00:50:13;31.7;;;11.3;;
39294;SDS011;52361;52.100;5.248;2022-11-15T00:51:50;29.9;;;12.2;;
39294;SDS011;52361;52.100;5.248;2022-11-15T00:53:26;30.8;;;12.0;;
39294;SDS011;52361;52.100;5.248;2022-11-15T00:56:40;31.9;;;11.8;;
39294;SDS011;52361;52.100;5.248;2022-11-15T00:58:16;31.3;;;11.7;;
39294;SDS011;52361;52.100;5.248;2022-11-15T00:59:52;29.5;;;11.5;;
39294;SDS011;52361;52.100;5.248;2022-11-15T01:03:04;28.5;;;12.6;;
39294;SDS011;52361;52.100;5.248;2022-11-15T01:04:41;32.4;;;12.9;;
39294;SDS011;52361;52.100;5.248;2022-11-15T01:06:17;31.6;;;12.4;;
39294;SDS011;52361;52.100;5.248;2022-11-15T01:07:53;29.0;;;12.9;;
39294;SDS011;52361;52.100;5.248;2022-11-15T01:11:08;31.7;;;13.5;;
39294;SDS011;52361;52.100;5.248;2022-11-15T01:12:46;28.6;;;12.8;;
39294;SDS011;52361;52.100;5.248;2022-11-15T01:14:22;28.6;;;12.0;;
39294;SDS011;52361;52.100;5.248;2022-11-15T01:17:41;29.5;;;10.7;;
39294;SDS011;52361;52.100;5.248;2022-11-15T01:19:17;27.9;;;12.7;;
39294;SDS011;52361;52.100;5.248;2022-11-15T01:20:53;34.21;;;13.8;;
39294;SDS011;52361;52.100;5.248;2022-11-15T01:22:29;39.81;;;13.2;;
39294;SDS011;52361;52.100;5.248;2022-11-15T01:25:44;27.9;;;11.9;;
39294;SDS011;52361;52.100;5.248;2022-11-15T01:27:20;35.71;;;11.5;;
39294;SDS011;52361;52.100;5.248;2022-11-15T01:28:56;26.0;;;11.9;;
39294;SDS011;52361;52.100;5.248;2022-11-15T01:32:08;35.5;;;12.5;;
39294;SDS011;52361;52.100;5.248;2022-11-15T01:33:44;30.2;;;12.3;;
39294;SDS011;52361;52.100;5.248;2022-11-15T01:35:23;33.1;;;12.3;;
39294;SDS011;52361;52.100;5.248;2022-11-15T01:38:36;26.4;;;12.2;;
39294;SDS011;52361;52.100;5.248;2022-11-15T01:40:13;31.1;;;12.4;;
39294;SDS011;52361;52.100;5.248;2022-11-15T01:41:50;30.2;;;12.5;;
39294;SDS011;52361;52.100;5.248;2022-11-15T01:43:27;41.9;;;12.8;;
39294;SDS011;52361;52.100;5.248;2022-11-15T01:46:51;30.6;;;12.0;;
39294;SDS011;52361;52.100;5.248;2022-11-15T01:48:28;33.1;;;12.8;;
39294;SDS011;52361;52.100;5.248;2022-11-15T01:50:09;31.1;;;13.8;;
39294;SDS011;52361;52.100;5.248;2022-11-15T01:51:50;35.6;;;13.0;;
39294;SDS011;52361;52.100;5.248;2022-11-15T01:55:08;30.5;;;12.4;;
39294;SDS011;52361;52.100;5.248;2022-11-15T01:56:48;39.71;;;13.3;;
39294;SDS011;52361;52.100;5.248;2022-11-15T01:58:30;37.81;;;12.5;;
39294;SDS011;52361;52.100;5.248;2022-11-15T02:01:45;24.8;;;10.21;;
39294;SDS011;52361;52.100;5.248;2022-11-15T02:03:22;24.8;;;10.21;;
39294;SDS011;52361;52.100;5.248;2022-11-15T02:05:08;35.81;;;12.0;;
39294;SDS011;52361;52.100;5.248;2022-11-15T02:06:45;32.4;;;13.4;;
39294;SDS011;52361;52.100;5.248;2022-11-15T02:10:03;32.1;;;12.6;;
39294;SDS011;52361;52.100;5.248;2022-11-15T02:11:45;27.2;;;12.8;;
39294;SDS011;52361;52.100;5.248;2022-11-15T02:13:24;33.21;;;12.7;;
39294;SDS011;52361;52.100;5.248;2022-11-15T02:15:00;32.71;;;13.5;;
39294;SDS011;52361;52.100;5.248;2022-11-15T02:18:34;32.3;;;12.8;;
39294;SDS011;52361;52.100;5.248;2022-11-15T02:20:22;24.6;;;12.2;;
39294;SDS011;52361;52.100;5.248;2022-11-15T02:22:33;26.0;;;12.2;;
39294;SDS011;52361;52.100;5.248;2022-11-15T02:24:27;30.8;;;11.4;;
39294;SDS011;52361;52.100;5.248;2022-11-15T02:26:38;29.3;;;12.1;;
39294;SDS011;52361;52.100;5.248;2022-11-15T02:28:45;33.5;;;12.7;;
39294;SDS011;52361;52.100;5.248;2022-11-15T02:30:35;34.71;;;12.3;;
39294;SDS011;52361;52.100;5.248;2022-11-15T02:32:18;33.1;;;13.4;;
39294;SDS011;52361;52.100;5.248;2022-11-15T02:34:01;34.31;;;12.8;;
39294;SDS011;52361;52.100;5.248;2022-11-15T02:35:49;25.9;;;11.2;;
39294;SDS011;52361;52.100;5.248;2022-11-15T02:39:23;27.7;;;12.8;;
39294;SDS011;52361;52.100;5.248;2022-11-15T02:41:08;33.5;;;12.7;;
39294;SDS011;52361;52.100;5.248;2022-11-15T02:44:07;27.9;;;11.8;;
39294;SDS011;52361;52.100;5.248;2022-11-15T02:45:50;41.6;;;12.4;;
39294;SDS011;52361;52.100;5.248;2022-11-15T02:47:32;29.4;;;11.9;;
39294;SDS011;52361;52.100;5.248;2022-11-15T02:49:17;26.2;;;12.2;;
39294;SDS011;52361;52.100;5.248;2022-11-15T02:50:54;34.5;;;13.0;;
39294;SDS011;52361;52.100;5.248;2022-11-15T02:52:31;30.6;;;12.1;;
39294;SDS011;52361;52.100;5.248;2022-11-15T02:55:50;31.5;;;13.6;;
39294;SDS011;52361;52.100;5.248;2022-11-15T02:57:32;29.8;;;13.1;;
39294;SDS011;52361;52.100;5.248;2022-11-15T02:59:24;24.9;;;11.2;;
39294;SDS011;52361;52.100;5.248;2022-11-15T03:01:32;32.5;;;11.8;;
39294;SDS011;52361;52.100;5.248;2022-11-15T03:03:29;31.1;;;13.3;;
39294;SDS011;52361;52.100;5.248;2022-11-15T03:05:18;25.3;;;12.4;;
39294;SDS011;52361;52.100;5.248;2022-11-15T03:08:49;23.5;;;11.2;;
39294;SDS011;52361;52.100;5.248;2022-11-15T03:10:36;28.8;;;12.4;;
39294;SDS011;52361;52.100;5.248;2022-11-15T03:12:23;32.1;;;11.0;;
39294;SDS011;52361;52.100;5.248;2022-11-15T03:14:07;27.7;;;11.7;;
39294;SDS011;52361;52.100;5.248;2022-11-15T03:15:56;23.1;;;11.4;;
39294;SDS011;52361;52.100;5.248;2022-11-15T03:17:42;31.3;;;11.8;;
39294;SDS011;52361;52.100;5.248;2022-11-15T03:21:11;24.4;;;11.5;;
39294;SDS011;52361;52.100;5.248;2022-11-15T03:22:50;29.4;;;11.1;;
39294;SDS011;52361;52.100;5.248;2022-11-15T03:24:30;28.6;;;10.4;;
39294;SDS011;52361;52.100;5.248;2022-11-15T03:26:12;27.8;;;10.5;;
39294;SDS011;52361;52.100;5.248;2022-11-15T03:29:33;28.1;;;11.9;;
39294;SDS011;52361;52.100;5.248;2022-11-15T03:32:18;24.5;;;10.4;;
39294;SDS011;52361;52.100;5.248;2022-11-15T03:34:00;26.4;;;11.5;;
39294;SDS011;52361;52.100;5.248;2022-11-15T03:35:42;23.5;;;10.9;;
39294;SDS011;52361;52.100;5.248;2022-11-15T03:37:21;22.1;;;11.4;;
39294;SDS011;52361;52.100;5.248;2022-11-15T03:39:05;29.4;;;12.6;;
39294;SDS011;52361;52.100;5.248;2022-11-15T03:40:45;22.5;;;10.9;;
39294;SDS011;52361;52.100;5.248;2022-11-15T03:44:14;25.3;;;12.1;;
39294;SDS011;52361;52.100;5.248;2022-11-15T03:45:59;25.6;;;11.2;;
39294;SDS011;52361;52.100;5.248;2022-11-15T03:47:38;24.9;;;10.5;;
39294;SDS011;52361;52.100;5.248;2022-11-15T03:49:19;24.9;;;10.4;;
39294;SDS011;52361;52.100;5.248;2022-11-15T03:51:02;24.7;;;10.6;;
39294;SDS011;52361;52.100;5.248;2022-11-15T03:54:18;29.1;;;11.4;;
39294;SDS011;52361;52.100;5.248;2022-11-15T03:55:54;24.4;;;11.7;;
39294;SDS011;52361;52.100;5.248;2022-11-15T03:57:30;22.4;;;10.3;;
39294;SDS011;52361;52.100;5.248;2022-11-15T04:00:42;23.7;;;10.5;;
39294;SDS011;52361;52.100;5.248;2022-11-15T04:02:19;22.4;;;10.9;;
39294;SDS011;52361;52.100;5.248;2022-11-15T04:03:55;18.5;;;9.5;;
39294;SDS011;52361;52.100;5.248;2022-11-15T04:07:07;23.4;;;11.8;;
39294;SDS011;52361;52.100;5.248;2022-11-15T04:08:43;23.1;;;9.71;;
39294;SDS011;52361;52.100;5.248;2022-11-15T04:10:19;25.8;;;10.9;;
39294;SDS011;52361;52.100;5.248;2022-11-15T04:11:56;21.4;;;9.1;;
39294;SDS011;52361;52.100;5.248;2022-11-15T04:15:09;22.0;;;9.21;;
39294;SDS011;52361;52.100;5.248;2022-11-15T04:16:47;22.6;;;10.21;;
39294;SDS011;52361;52.100;5.248;2022-11-15T04:18:24;23.7;;;10.5;;
39294;SDS011;52361;52.100;5.248;2022-11-15T04:24:14;24.6;;;10.21;;
39294;SDS011;52361;52.100;5.248;2022-11-15T04:25:51;26.7;;;10.6;;
39294;SDS011;52361;52.100;5.248;2022-11-15T04:27:30;29.1;;;10.3;;
39294;SDS011;52361;52.100;5.248;2022-11-15T04:29:38;20.6;;;10.5;;
39294;SDS011;52361;52.100;5.248;2022-11-15T04:31:14;26.3;;;10.8;;
39294;SDS011;52361;52.100;5.248;2022-11-15T04:34:26;25.9;;;11.0;;
39294;SDS011;52361;52.100;5.248;2022-11-15T04:37:20;19.91;;;9.6;;
39294;SDS011;52361;52.100;5.248;2022-11-15T04:38:58;24.5;;;10.1;;
39294;SDS011;52361;52.100;5.248;2022-11-15T04:40:34;21.9;;;10.0;;
39294;SDS011;52361;52.100;5.248;2022-11-15T04:42:12;24.8;;;9.71;;
39294;SDS011;52361;52.100;5.248;2022-11-15T04:43:48;21.9;;;9.71;;
39294;SDS011;52361;52.100;5.248;2022-11-15T04:45:24;19.3;;;9.9;;
39294;SDS011;52361;52.100;5.248;2022-11-15T04:48:38;20.7;;;10.4;;
39294;SDS011;52361;52.100;5.248;2022-11-15T04:50:15;20.7;;;10.4;;
39294;SDS011;52361;52.100;5.248;2022-11-15T04:51:52;23.4;;;9.1;;
39294;SDS011;52361;52.100;5.248;2022-11-15T04:55:05;20.8;;;9.5;;
39294;SDS011;52361;52.100;5.248;2022-11-15T04:56:42;17.7;;;9.6;;
39294;SDS011;52361;52.100;5.248;2022-11-15T04:58:18;18.0;;;9.5;;
39294;SDS011;52361;52.100;5.248;2022-11-15T05:01:30;20.5;;;10.0;;
39294;SDS011;52361;52.100;5.248;2022-11-15T05:04:23;18.91;;;9.5;;
39294;SDS011;52361;52.100;5.248;2022-11-15T05:05:59;19.7;;;8.5;;
39294;SDS011;52361;52.100;5.248;2022-11-15T05:07:36;25.0;;;9.1;;
39294;SDS011;52361;52.100;5.248;2022-11-15T05:09:13;20.0;;;10.0;;
39294;SDS011;52361;52.100;5.248;2022-11-15T05:10:49;18.41;;;9.6;;
39294;SDS011;52361;52.100;5.248;2022-11-15T05:14:01;17.11;;;8.9;;
39294;SDS011;52361;52.100;5.248;2022-11-15T05:15:37;20.8;;;9.71;;
39294;SDS011;52361;52.100;5.248;2022-11-15T05:17:14;16.3;;;8.2;;
39294;SDS011;52361;52.100;5.248;2022-11-15T05:20:27;17.61;;;8.4;;
39294;SDS011;52361;52.100;5.248;2022-11-15T05:22:03;22.4;;;8.4;;
39294;SDS011;52361;52.100;5.248;2022-11-15T05:23:40;20.11;;;9.31;;
39294;SDS011;52361;52.100;5.248;2022-11-15T05:25:16;19.5;;;8.5;;
39294;SDS011;52361;52.100;5.248;2022-11-15T05:28:29;18.7;;;9.5;;
39294;SDS011;52361;52.100;5.248;2022-11-15T05:30:06;16.4;;;8.2;;
39294;SDS011;52361;52.100;5.248;2022-11-15T05:31:43;22.1;;;8.9;;
39294;SDS011;52361;52.100;5.248;2022-11-15T05:34:56;18.2;;;9.1;;
39294;SDS011;52361;52.100;5.248;2022-11-15T05:36:33;16.4;;;8.5;;
39294;SDS011;52361;52.100;5.248;2022-11-15T05:38:13;18.7;;;8.81;;
39294;SDS011;52361;52.100;5.248;2022-11-15T05:39:49;16.9;;;8.71;;
39294;SDS011;52361;52.100;5.248;2022-11-15T05:43:08;21.1;;;9.6;;
39294;SDS011;52361;52.100;5.248;2022-11-15T05:44:47;15.8;;;8.31;;
39294;SDS011;52361;52.100;5.248;2022-11-15T05:46:27;20.0;;;8.9;;
39294;SDS011;52361;52.100;5.248;2022-11-15T05:49:45;17.61;;;8.5;;
39294;SDS011;52361;52.100;5.248;2022-11-15T05:51:23;17.3;;;9.0;;
39294;SDS011;52361;52.100;5.248;2022-11-15T05:53:00;19.0;;;8.31;;
39294;SDS011;52361;52.100;5.248;2022-11-15T05:54:37;14.1;;;7.7;;
39294;SDS011;52361;52.100;5.248;2022-11-15T05:57:51;20.9;;;9.5;;
39294;SDS011;52361;52.100;5.248;2022-11-15T05:59:28;21.2;;;8.9;;
39294;SDS011;52361;52.100;5.248;2022-11-15T06:01:06;14.6;;;8.81;;
39294;SDS011;52361;52.100;5.248;2022-11-15T06:04:18;21.5;;;9.71;;
39294;SDS011;52361;52.100;5.248;2022-11-15T06:05:54;15.2;;;8.1;;
39294;SDS011;52361;52.100;5.248;2022-11-15T06:07:32;18.8;;;8.71;;
39294;SDS011;52361;52.100;5.248;2022-11-15T06:09:08;20.8;;;9.1;;
39294;SDS011;52361;52.100;5.248;2022-11-15T06:12:21;16.4;;;8.81;;
39294;SDS011;52361;52.100;5.248;2022-11-15T06:13:57;21.0;;;8.71;;
39294;SDS011;52361;52.100;5.248;2022-11-15T06:15:33;15.7;;;7.8;;
39294;SDS011;52361;52.100;5.248;2022-11-15T06:18:47;16.9;;;8.71;;
39294;SDS011;52361;52.100;5.248;2022-11-15T06:20:23;19.11;;;8.6;;
39294;SDS011;52361;52.100;5.248;2022-11-15T06:21:59;17.8;;;8.0;;
39294;SDS011;52361;52.100;5.248;2022-11-15T06:25:11;27.3;;;8.9;;
39294;SDS011;52361;52.100;5.248;2022-11-15T06:26:47;20.0;;;9.21;;
39294;SDS011;52361;52.100;5.248;2022-11-15T06:28:24;20.9;;;9.5;;
39294;SDS011;52361;52.100;5.248;2022-11-15T06:30:00;21.2;;;7.9;;
39294;SDS011;52361;52.100;5.248;2022-11-15T06:33:12;18.0;;;9.1;;
39294;SDS011;52361;52.100;5.248;2022-11-15T06:34:48;18.7;;;8.9;;
39294;SDS011;52361;52.100;5.248;2022-11-15T06:36:24;20.5;;;8.4;;
39294;SDS011;52361;52.100;5.248;2022-11-15T06:39:40;18.7;;;8.4;;
39294;SDS011;52361;52.100;5.248;2022-11-15T06:41:16;21.6;;;9.9;;
39294;SDS011;52361;52.100;5.248;2022-11-15T06:42:56;15.5;;;7.9;;
39294;SDS011;52361;52.100;5.248;2022-11-15T06:46:10;18.2;;;8.6;;
39294;SDS011;52361;52.100;5.248;2022-11-15T06:47:46;20.2;;;8.5;;
39294;SDS011;52361;52.100;5.248;2022-11-15T06:49:23;17.41;;;9.1;;
39294;SDS011;52361;52.100;5.248;2022-11-15T06:51:00;20.8;;;8.9;;
39294;SDS011;52361;52.100;5.248;2022-11-15T06:54:14;16.8;;;8.81;;
39294;SDS011;52361;52.100;5.248;2022-11-15T06:55:51;19.41;;;8.2;;
39294;SDS011;52361;52.100;5.248;2022-11-15T06:57:28;16.5;;;8.6;;
39294;SDS011;52361;52.100;5.248;2022-11-15T07:00:40;18.3;;;8.9;;
39294;SDS011;52361;52.100;5.248;2022-11-15T07:02:17;16.5;;;7.9;;
39294;SDS011;52361;52.100;5.248;2022-11-15T07:03:53;21.2;;;8.5;;
39294;SDS011;52361;52.100;5.248;2022-11-15T07:07:07;20.3;;;9.21;;
39294;SDS011;52361;52.100;5.248;2022-11-15T07:08:43;19.8;;;9.4;;
39294;SDS011;52361;52.100;5.248;2022-11-15T07:10:19;17.11;;;9.31;;
39294;SDS011;52361;52.100;5.248;2022-11-15T07:11:56;18.11;;;8.5;;
39294;SDS011;52361;52.100;5.248;2022-11-15T07:15:11;16.2;;;8.6;;
39294;SDS011;52361;52.100;5.248;2022-11-15T07:16:47;15.1;;;7.6;;
39294;SDS011;52361;52.100;5.248;2022-11-15T07:18:23;17.11;;;8.5;;
39294;SDS011;52361;52.100;5.248;2022-11-15T07:21:35;15.8;;;8.2;;
39294;SDS011;52361;52.100;5.248;2022-11-15T07:23:12;18.2;;;9.0;;
39294;SDS011;52361;52.100;5.248;2022-11-15T07:24:49;15.8;;;7.9;;
39294;SDS011;52361;52.100;5.248;2022-11-15T07:28:01;16.61;;;9.21;;
39294;SDS011;52361;52.100;5.248;2022-11-15T07:29:38;18.7;;;8.6;;
39294;SDS011;52361;52.100;5.248;2022-11-15T07:31:14;18.3;;;7.7;;
39294;SDS011;52361;52.100;5.248;2022-11-15T07:32:52;19.5;;;9.0;;
39294;SDS011;52361;52.100;5.248;2022-11-15T07:36:06;15.0;;;8.0;;
39294;SDS011;52361;52.100;5.248;2022-11-15T07:37:44;13.1;;;7.7;;
39294;SDS011;52361;52.100;5.248;2022-11-15T07:39:29;20.9;;;8.71;;
39294;SDS011;52361;52.100;5.248;2022-11-15T07:42:59;19.0;;;7.4;;
39294;SDS011;52361;52.100;5.248;2022-11-15T07:44:35;14.0;;;6.8;;
39294;SDS011;52361;52.100;5.248;2022-11-15T07:46:11;15.1;;;7.3;;
39294;SDS011;52361;52.100;5.248;2022-11-15T07:47:47;16.8;;;7.8;;
39294;SDS011;52361;52.100;5.248;2022-11-15T07:51:01;17.2;;;7.6;;
39294;SDS011;52361;52.100;5.248;2022-11-15T07:52:38;15.5;;;7.4;;
39294;SDS011;52361;52.100;5.248;2022-11-15T07:54:14;15.8;;;7.9;;
39294;SDS011;52361;52.100;5.248;2022-11-15T07:55:50;13.6;;;6.9;;
39294;SDS011;52361;52.100;5.248;2022-11-15T07:59:02;19.8;;;8.2;;
39294;SDS011;52361;52.100;5.248;2022-11-15T08:00:38;13.7;;;6.9;;
39294;SDS011;52361;52.100;5.248;2022-11-15T08:02:17;15.7;;;6.6;;
39294;SDS011;52361;52.100;5.248;2022-11-15T08:05:30;13.4;;;6.5;;
39294;SDS011;52361;52.100;5.248;2022-11-15T08:07:06;17.41;;;7.0;;
39294;SDS011;52361;52.100;5.248;2022-11-15T08:08:42;16.2;;;7.3;;
39294;SDS011;52361;52.100;5.248;2022-11-15T08:11:56;12.5;;;6.4;;
39294;SDS011;52361;52.100;5.248;2022-11-15T08:13:32;12.0;;;6.2;;
39294;SDS011;52361;52.100;5.248;2022-11-15T08:15:08;18.0;;;7.0;;
39294;SDS011;52361;52.100;5.248;2022-11-15T08:16:45;12.2;;;6.5;;
39294;SDS011;52361;52.100;5.248;2022-11-15T08:19:58;12.4;;;6.5;;
39294;SDS011;52361;52.100;5.248;2022-11-15T08:21:35;14.8;;;5.9;;
39294;SDS011;52361;52.100;5.248;2022-11-15T08:23:11;9.6;;;5.7;;
39294;SDS011;52361;52.100;5.248;2022-11-15T08:26:26;13.8;;;6.3;;
39294;SDS011;52361;52.100;5.248;2022-11-15T08:28:04;14.6;;;6.7;;
39294;SDS011;52361;52.100;5.248;2022-11-15T08:29:42;13.6;;;6.2;;
39294;SDS011;52361;52.100;5.248;2022-11-15T08:31:20;11.5;;;6.0;;
39294;SDS011;52361;52.100;5.248;2022-11-15T08:34:34;13.5;;;6.8;;
39294;SDS011;52361;52.100;5.248;2022-11-15T08:36:11;18.8;;;6.4;;
39294;SDS011;52361;52.100;5.248;2022-11-15T08:37:51;14.6;;;5.5;;
39294;SDS011;52361;52.100;5.248;2022-11-15T08:41:06;12.0;;;5.11;;
39294;SDS011;52361;52.100;5.248;2022-11-15T08:42:42;8.31;;;5.2;;
39294;SDS011;52361;52.100;5.248;2022-11-15T08:44:21;8.31;;;5.11;;
39294;SDS011;52361;52.100;5.248;2022-11-15T08:47:34;11.4;;;5.4;;
39294;SDS011;52361;52.100;5.248;2022-11-15T08:49:10;8.2;;;4.61;;
39294;SDS011;52361;52.100;5.248;2022-11-15T08:50:47;8.6;;;4.91;;
39294;SDS011;52361;52.100;5.248;2022-11-15T08:52:23;10.3;;;5.11;;
39294;SDS011;52361;52.100;5.248;2022-11-15T08:55:35;11.6;;;6.0;;
39294;SDS011;52361;52.100;5.248;2022-11-15T08:57:13;9.31;;;5.0;;
39294;SDS011;52361;52.100;5.248;2022-11-15T08:58:50;14.4;;;5.5;;
39294;SDS011;52361;52.100;5.248;2022-11-15T09:02:03;13.3;;;5.9;;
39294;SDS011;52361;52.100;5.248;2022-11-15T09:03:40;13.6;;;5.4;;
39294;SDS011;52361;52.100;5.248;2022-11-15T09:05:16;10.21;;;4.91;;
39294;SDS011;52361;52.100;5.248;2022-11-15T09:06:55;9.4;;;4.5;;
39294;SDS011;52361;52.100;5.248;2022-11-15T09:10:07;11.2;;;4.7;;
39294;SDS011;52361;52.100;5.248;2022-11-15T09:11:44;8.6;;;5.2;;
39294;SDS011;52361;52.100;5.248;2022-11-15T09:13:20;12.4;;;5.3;;
39294;SDS011;52361;52.100;5.248;2022-11-15T09:16:34;8.4;;;5.5;;
39294;SDS011;52361;52.100;5.248;2022-11-15T09:18:10;12.6;;;6.4;;
39294;SDS011;52361;52.100;5.248;2022-11-15T09:19:45;8.71;;;5.0;;
39294;SDS011;52361;52.100;5.248;2022-11-15T09:22:59;11.1;;;5.11;;
39294;SDS011;52361;52.100;5.248;2022-11-15T09:24:35;9.71;;;4.8;;
39294;SDS011;52361;52.100;5.248;2022-11-15T09:26:12;8.71;;;4.2;;
39294;SDS011;52361;52.100;5.248;2022-11-15T09:27:49;7.9;;;4.91;;
39294;SDS011;52361;52.100;5.248;2022-11-15T09:31:02;7.9;;;4.5;;
39294;SDS011;52361;52.100;5.248;2022-11-15T09:32:41;8.5;;;4.2;;
39294;SDS011;52361;52.100;5.248;2022-11-15T09:34:18;11.9;;;4.7;;
39294;SDS011;52361;52.100;5.248;2022-11-15T09:37:35;7.4;;;4.2;;
39294;SDS011;52361;52.100;5.248;2022-11-15T09:39:11;10.7;;;4.91;;
39294;SDS011;52361;52.100;5.248;2022-11-15T09:40:48;6.5;;;4.5;;
39294;SDS011;52361;52.100;5.248;2022-11-15T09:42:47;7.7;;;4.5;;
39294;SDS011;52361;52.100;5.248;2022-11-15T09:44:40;9.21;;;4.5;;
39294;SDS011;52361;52.100;5.248;2022-11-15T09:48:24;7.4;;;4.0;;
39294;SDS011;52361;52.100;5.248;2022-11-15T09:50:28;6.0;;;3.7;;
39294;SDS011;52361;52.100;5.248;2022-11-15T09:52:10;8.31;;;3.9;;
39294;SDS011;52361;52.100;5.248;2022-11-15T09:53:48;8.1;;;5.3;;
39294;SDS011;52361;52.100;5.248;2022-11-15T09:55:34;8.81;;;3.8;;
39294;SDS011;52361;52.100;5.248;2022-11-15T09:57:32;7.6;;;3.7;;
39294;SDS011;52361;52.100;5.248;2022-11-15T09:59:51;9.6;;;3.6;;
39294;SDS011;52361;52.100;5.248;2022-11-15T10:01:37;8.2;;;3.7;;
39294;SDS011;52361;52.100;5.248;2022-11-15T10:03:26;8.71;;;3.7;;
39294;SDS011;52361;52.100;5.248;2022-11-15T10:06:53;7.2;;;3.8;;
39294;SDS011;52361;52.100;5.248;2022-11-15T10:08:49;5.9;;;3.5;;
39294;SDS011;52361;52.100;5.248;2022-11-15T10:10:32;6.1;;;3.5;;
39294;SDS011;52361;52.100;5.248;2022-11-15T10:12:14;5.8;;;2.7;;
39294;SDS011;52361;52.100;5.248;2022-11-15T10:13:53;5.6;;;2.4;;
39294;SDS011;52361;52.100;5.248;2022-11-15T10:17:15;5.2;;;3.2;;
39294;SDS011;52361;52.100;5.248;2022-11-15T10:20:12;9.4;;;3.8;;
39294;SDS011;52361;52.100;5.248;2022-11-15T10:23:44;6.8;;;3.1;;
39294;SDS011;52361;52.100;5.248;2022-11-15T10:25:21;7.3;;;3.7;;
39294;SDS011;52361;52.100;5.248;2022-11-15T10:26:59;5.11;;;2.5;;
39294;SDS011;52361;52.100;5.248;2022-11-15T10:28:36;6.6;;;3.5;;
39294;SDS011;52361;52.100;5.248;2022-11-15T10:31:53;8.9;;;3.3;;
39294;SDS011;52361;52.100;5.248;2022-11-15T10:33:30;6.0;;;3.2;;
39294;SDS011;52361;52.100;5.248;2022-11-15T10:35:17;4.8;;;2.8;;
39294;SDS011;52361;52.100;5.248;2022-11-15T10:37:03;5.11;;;3.3;;
39294;SDS011;52361;52.100;5.248;2022-11-15T10:40:28;7.0;;;2.9;;
39294;SDS011;52361;52.100;5.248;2022-11-15T10:42:15;6.4;;;3.1;;
39294;SDS011;52361;52.100;5.248;2022-11-15T10:44:26;3.8;;;2.6;;
39294;SDS011;52361;52.100;5.248;2022-11-15T10:46:16;4.1;;;2.7;;
39294;SDS011;52361;52.100;5.248;2022-11-15T10:48:18;4.5;;;2.5;;
39294;SDS011;52361;52.100;5.248;2022-11-15T10:50:01;4.0;;;3.0;;
39294;SDS011;52361;52.100;5.248;2022-11-15T10:51:43;4.7;;;2.6;;
39294;SDS011;52361;52.100;5.248;2022-11-15T10:55:20;4.2;;;2.6;;
39294;SDS011;52361;52.100;5.248;2022-11-15T10:57:00;2.6;;;2.31;;
39294;SDS011;52361;52.100;5.248;2022-11-15T10:58:44;5.8;;;2.31;;
39294;SDS011;52361;52.100;5.248;2022-11-15T11:00:28;5.5;;;2.21;;
39294;SDS011;52361;52.100;5.248;2022-11-15T11:02:23;4.3;;;2.21;;
39294;SDS011;52361;52.100;5.248;2022-11-15T11:04:11;3.2;;;2.0;;
39294;SDS011;52361;52.100;5.248;2022-11-15T11:07:24;6.8;;;2.31;;
39294;SDS011;52361;52.100;5.248;2022-11-15T11:09:04;3.3;;;1.7;;
39294;SDS011;52361;52.100;5.248;2022-11-15T11:10:51;1.9;;;1.4;;
39294;SDS011;52361;52.100;5.248;2022-11-15T11:12:30;2.0;;;1.6;;
39294;SDS011;52361;52.100;5.248;2022-11-15T11:15:58;2.0;;;1.5;;
39294;SDS011;52361;52.100;5.248;2022-11-15T11:17:51;2.0;;;1.8;;
39294;SDS011;52361;52.100;5.248;2022-11-15T11:19:43;2.21;;;1.6;;
39294;SDS011;52361;52.100;5.248;2022-11-15T11:21:35;2.1;;;1.6;;
39294;SDS011;52361;52.100;5.248;2022-11-15T11:23:27;2.31;;;1.5;;
39294;SDS011;52361;52.100;5.248;2022-11-15T11:25:19;2.31;;;1.3;;
39294;SDS011;52361;52.100;5.248;2022-11-15T11:27:11;5.8;;;2.21;;
39294;SDS011;52361;52.100;5.248;2022-11-15T11:31:06;3.9;;;1.2;;
39294;SDS011;52361;52.100;5.248;2022-11-15T11:32:58;1.9;;;1.2;;
39294;SDS011;52361;52.100;5.248;2022-11-15T11:34:47;3.5;;;1.4;;
39294;SDS011;52361;52.100;5.248;2022-11-15T11:36:36;4.3;;;1.5;;
39294;SDS011;52361;52.100;5.248;2022-11-15T11:38:24;2.0;;;1.11;;
39294;SDS011;52361;52.100;5.248;2022-11-15T11:40:22;3.0;;;1.2;;
39294;SDS011;52361;52.100;5.248;2022-11-15T11:42:07;4.1;;;1.3;;
39294;SDS011;52361;52.100;5.248;2022-11-15T11:43:56;1.4;;;1.0;;
39294;SDS011;52361;52.100;5.248;2022-11-15T11:47:51;3.8;;;1.2;;
39294;SDS011;52361;52.100;5.248;2022-11-15T11:49:39;2.4;;;0.9;;
39294;SDS011;52361;52.100;5.248;2022-11-15T11:51:21;5.0;;;1.5;;
39294;SDS011;52361;52.100;5.248;2022-11-15T11:53:03;4.41;;;1.6;;
39294;SDS011;52361;52.100;5.248;2022-11-15T11:54:52;2.6;;;1.11;;
39294;SDS011;52361;52.100;5.248;2022-11-15T11:56:37;1.8;;;1.11;;
39294;SDS011;52361;52.100;5.248;2022-11-15T12:00:03;1.3;;;1.0;;
39294;SDS011;52361;52.100;5.248;2022-11-15T12:01:49;3.1;;;0.9;;
39294;SDS011;52361;52.100;5.248;2022-11-15T12:03:28;3.4;;;1.4;;
39294;SDS011;52361;52.100;5.248;2022-11-15T12:05:16;4.1;;;0.9;;
39294;SDS011;52361;52.100;5.248;2022-11-15T12:07:07;0.7;;;0.7;;
39294;SDS011;52361;52.100;5.248;2022-11-15T12:10:33;1.11;;;0.9;;
39294;SDS011;52361;52.100;5.248;2022-11-15T12:12:12;4.61;;;1.4;;
39294;SDS011;52361;52.100;5.248;2022-11-15T12:13:56;4.0;;;1.0;;
39294;SDS011;52361;52.100;5.248;2022-11-15T12:15:36;2.6;;;0.8;;
39294;SDS011;52361;52.100;5.248;2022-11-15T12:17:19;2.1;;;1.0;;
39294;SDS011;52361;52.100;5.248;2022-11-15T12:20:39;2.7;;;0.9;;
39294;SDS011;52361;52.100;5.248;2022-11-15T12:22:33;5.9;;;1.0;;
39294;SDS011;52361;52.100;5.248;2022-11-15T12:24:19;0.9;;;0.7;;
39294;SDS011;52361;52.100;5.248;2022-11-15T12:26:04;2.1;;;0.7;;
39294;SDS011;52361;52.100;5.248;2022-11-15T12:27:46;3.3;;;1.6;;
39294;SDS011;52361;52.100;5.248;2022-11-15T12:31:17;4.0;;;2.4;;
39294;SDS011;52361;52.100;5.248;2022-11-15T12:33:01;3.5;;;1.11;;
39294;SDS011;52361;52.100;5.248;2022-11-15T12:34:40;1.2;;;0.9;;
39294;SDS011;52361;52.100;5.248;2022-11-15T12:36:37;1.5;;;0.6;;
39294;SDS011;52361;52.100;5.248;2022-11-15T12:38:48;1.7;;;0.8;;
39294;SDS011;52361;52.100;5.248;2022-11-15T12:40:30;3.9;;;1.2;;
39294;SDS011;52361;52.100;5.248;2022-11-15T12:47:21;3.6;;;1.11;;
39294;SDS011;52361;52.100;5.248;2022-11-15T12:49:00;4.91;;;0.8;;
39294;SDS011;52361;52.100;5.248;2022-11-15T12:52:35;1.4;;;0.5;;